Time;durP1;ratioP1;P1;durP2;ratioP2;P2;SDS_P1;SDS_P2;PMS_P1;PMS_P2;Temp;Humidity;BMP_temperature;BMP_pressure;BME280_temperature;BME280_humidity;BME280_pressure;Samples;Min_cycle;Max_cycle;Signal;HPM_P1;HPM_P2
2023/10/23 00:00:50;;;;;;;5.63;1.80;;;;;;;;;;5050956;28;20195;-83
2023/10/23 00:03:17;;;;;;;7.07;2.20;;;;;;;;;;5054287;28;20286;-83
2023/10/23 00:05:46;;;;;;;9.50;2.13;;;;;;;;;;5053167;28;20726;-83
2023/10/23 00:08:13;;;;;;;7.07;2.30;;;;;;;;;;5054118;28;20265;-84
2023/10/23 00:10:42;;;;;;;9.17;2.10;;;;;;;;;;5054291;28;20787;-84
2023/10/23 00:13:09;;;;;;;8.37;2.20;;;;;;;;;;5054281;28;20196;-84
2023/10/23 00:15:36;;;;;;;10.23;2.33;;;;;;;;;;5051599;28;20303;-85
2023/10/23 00:18:04;;;;;;;7.33;2.33;;;;;;;;;;5053825;28;20223;-85
2023/10/23 00:20:31;;;;;;;5.90;2.10;;;;;;;;;;5053519;28;20191;-85
2023/10/23 00:22:59;;;;;;;5.37;2.07;;;;;;;;;;5053691;28;20203;-84
2023/10/23 00:25:27;;;;;;;8.27;2.03;;;;;;;;;;5054147;28;20279;-84
2023/10/23 00:27:54;;;;;;;7.23;2.47;;;;;;;;;;5053336;28;20676;-85
2023/10/23 00:30:21;;;;;;;8.17;2.50;;;;;;;;;;5054070;28;20674;-83
2023/10/23 00:32:49;;;;;;;8.10;1.93;;;;;;;;;;5053273;28;20203;-83
2023/10/23 00:35:16;;;;;;;9.50;2.10;;;;;;;;;;5053353;28;20195;-84
2023/10/23 00:37:43;;;;;;;9.00;2.50;;;;;;;;;;5053508;28;20214;-85
2023/10/23 00:40:13;;;;;;;8.13;2.10;;;;;;;;;;5053489;28;20199;-84
2023/10/23 00:42:43;;;;;;;8.27;2.17;;;;;;;;;;5053263;28;20196;-83
2023/10/23 00:45:11;;;;;;;9.83;2.43;;;;;;;;;;5053580;28;20695;-84
2023/10/23 00:47:38;;;;;;;6.57;2.30;;;;;;;;;;5053175;28;20274;-84
2023/10/23 00:50:06;;;;;;;6.10;2.30;;;;;;;;;;5053026;28;20227;-85
2023/10/23 00:52:33;;;;;;;8.23;2.20;;;;;;;;;;5053384;28;20196;-85
2023/10/23 00:55:00;;;;;;;8.93;2.50;;;;;;;;;;5053357;28;20195;-84
2023/10/23 00:57:29;;;;;;;7.13;2.40;;;;;;;;;;5052987;28;20200;-84
2023/10/23 00:59:56;;;;;;;8.10;2.30;;;;;;;;;;5051478;28;20220;-85
2023/10/23 01:02:24;;;;;;;7.50;2.40;;;;;;;;;;5053232;28;20216;-85
2023/10/23 01:04:52;;;;;;;12.23;2.90;;;;;;;;;;5052749;28;20204;-84
2023/10/23 01:07:19;;;;;;;7.33;2.37;;;;;;;;;;5053399;28;20263;-85
2023/10/23 01:09:46;;;;;;;7.67;2.60;;;;;;;;;;5051940;28;20291;-84
2023/10/23 01:12:14;;;;;;;10.10;2.70;;;;;;;;;;5052959;28;20227;-84
2023/10/23 01:14:42;;;;;;;9.90;2.70;;;;;;;;;;5052879;28;20231;-86
2023/10/23 01:17:10;;;;;;;7.33;2.90;;;;;;;;;;5052380;28;20196;-84
2023/10/23 01:19:37;;;;;;;9.57;2.47;;;;;;;;;;5051916;28;20236;-84
2023/10/23 01:22:05;;;;;;;8.83;2.90;;;;;;;;;;5052997;28;20234;-84
2023/10/23 01:24:34;;;;;;;6.53;2.63;;;;;;;;;;5052806;28;20245;-84
2023/10/23 01:27:04;;;;;;;7.83;2.63;;;;;;;;;;5052736;28;20255;-84
2023/10/23 01:29:31;;;;;;;6.70;3.00;;;;;;;;;;5052339;28;20238;-85
2023/10/23 01:31:58;;;;;;;12.10;2.87;;;;;;;;;;5053229;28;20231;-86
2023/10/23 01:34:25;;;;;;;6.70;2.50;;;;;;;;;;5052321;28;20199;-84
2023/10/23 01:36:52;;;;;;;10.80;2.80;;;;;;;;;;5052462;28;20227;-84
2023/10/23 01:39:20;;;;;;;8.87;2.73;;;;;;;;;;5052796;28;20321;-85
2023/10/23 01:41:47;;;;;;;7.80;2.67;;;;;;;;;;5052782;28;20273;-85
2023/10/23 01:44:16;;;;;;;7.67;2.80;;;;;;;;;;5052514;28;20674;-85
2023/10/23 01:46:43;;;;;;;8.97;2.63;;;;;;;;;;5051925;28;20297;-84
2023/10/23 01:49:10;;;;;;;9.83;2.77;;;;;;;;;;5052445;28;20641;-85
2023/10/23 01:51:37;;;;;;;8.43;2.60;;;;;;;;;;5052451;28;20242;-84
2023/10/23 01:54:05;;;;;;;9.10;2.80;;;;;;;;;;5052364;28;20215;-85
2023/10/23 01:56:32;;;;;;;11.53;3.10;;;;;;;;;;5052514;28;20718;-85
2023/10/23 01:59:00;;;;;;;9.03;2.80;;;;;;;;;;5052359;28;20191;-85
2023/10/23 02:01:28;;;;;;;8.13;2.70;;;;;;;;;;5050371;28;20239;-85
2023/10/23 02:03:57;;;;;;;11.37;3.20;;;;;;;;;;5051942;28;20200;-85
2023/10/23 02:06:25;;;;;;;7.23;3.10;;;;;;;;;;5051652;28;20259;-84
2023/10/23 02:08:52;;;;;;;9.03;2.80;;;;;;;;;;5050869;28;20196;-85
2023/10/23 02:11:19;;;;;;;9.90;3.03;;;;;;;;;;5052098;28;20223;-85
2023/10/23 02:13:47;;;;;;;10.43;3.20;;;;;;;;;;5051929;28;20258;-84
2023/10/23 02:16:14;;;;;;;8.27;2.97;;;;;;;;;;5051194;28;20230;-85
2023/10/23 02:18:43;;;;;;;10.57;3.00;;;;;;;;;;5051791;28;20802;-84
2023/10/23 02:21:11;;;;;;;10.37;3.17;;;;;;;;;;5051587;28;20200;-85
2023/10/23 02:23:38;;;;;;;6.07;2.80;;;;;;;;;;5051497;28;20200;-85
2023/10/23 02:26:05;;;;;;;9.53;2.97;;;;;;;;;;5051542;28;20275;-84
2023/10/23 02:28:33;;;;;;;7.47;3.27;;;;;;;;;;5051604;28;20746;-85
2023/10/23 02:31:03;;;;;;;12.00;3.20;;;;;;;;;;5050631;28;20223;-84
2023/10/23 02:33:30;;;;;;;9.33;3.03;;;;;;;;;;5038982;28;20288;-84
2023/10/23 02:35:59;;;;;;;8.17;3.07;;;;;;;;;;5051368;28;20196;-84
2023/10/23 02:38:26;;;;;;;7.67;3.17;;;;;;;;;;5051540;28;20227;-84
2023/10/23 02:40:53;;;;;;;10.47;3.50;;;;;;;;;;5051471;28;20668;-84
2023/10/23 02:43:21;;;;;;;9.33;3.00;;;;;;;;;;5051162;28;20196;-85
2023/10/23 02:45:48;;;;;;;8.10;2.50;;;;;;;;;;5051107;28;20211;-85
2023/10/23 02:48:16;;;;;;;7.77;2.50;;;;;;;;;;5051652;28;20781;-84
2023/10/23 02:50:44;;;;;;;9.63;2.90;;;;;;;;;;5051478;28;20222;-84
2023/10/23 02:53:13;;;;;;;6.70;2.97;;;;;;;;;;5051032;28;20227;-84
2023/10/23 02:55:41;;;;;;;9.93;2.80;;;;;;;;;;5051082;28;20202;-85
2023/10/23 02:58:08;;;;;;;8.77;2.57;;;;;;;;;;5050928;28;20223;-84
2023/10/23 03:00:36;;;;;;;9.40;2.93;;;;;;;;;;5046575;28;20224;-83
2023/10/23 03:03:03;;;;;;;8.50;2.60;;;;;;;;;;5051042;28;20219;-84
2023/10/23 03:05:30;;;;;;;13.67;3.07;;;;;;;;;;5050884;28;20294;-85
2023/10/23 03:07:58;;;;;;;9.63;2.77;;;;;;;;;;5051075;28;20711;-85
2023/10/23 03:10:27;;;;;;;10.57;2.90;;;;;;;;;;5050283;28;20195;-84
2023/10/23 03:12:54;;;;;;;11.90;2.87;;;;;;;;;;5050890;28;20283;-85
2023/10/23 03:15:22;;;;;;;9.93;2.83;;;;;;;;;;5040392;28;20324;-84
2023/10/23 03:17:49;;;;;;;10.03;3.07;;;;;;;;;;5050873;28;20778;-85
2023/10/23 03:20:16;;;;;;;10.60;2.60;;;;;;;;;;5050930;28;20215;-85
2023/10/23 03:22:43;;;;;;;9.90;2.77;;;;;;;;;;5051000;28;20219;-85
2023/10/23 03:25:11;;;;;;;12.03;2.90;;;;;;;;;;5050627;28;20202;-86
2023/10/23 03:27:41;;;;;;;11.27;2.70;;;;;;;;;;5050668;28;20322;-85
2023/10/23 03:30:09;;;;;;;11.53;2.67;;;;;;;;;;5050497;28;20203;-85
2023/10/23 03:32:36;;;;;;;10.00;2.50;;;;;;;;;;5051920;28;20195;-85
2023/10/23 03:35:04;;;;;;;10.20;2.50;;;;;;;;;;5054637;28;20227;-85
2023/10/23 03:37:31;;;;;;;9.43;2.77;;;;;;;;;;5054518;28;20295;-85
2023/10/23 03:39:58;;;;;;;13.20;2.87;;;;;;;;;;5054834;28;20261;-85
2023/10/23 03:42:26;;;;;;;8.80;2.77;;;;;;;;;;5054483;28;20718;-85
2023/10/23 03:44:54;;;;;;;10.03;2.60;;;;;;;;;;5054192;28;20283;-85
2023/10/23 03:47:21;;;;;;;7.30;2.20;;;;;;;;;;5054135;28;20271;-83
2023/10/23 03:49:49;;;;;;;13.83;2.63;;;;;;;;;;5054457;28;20218;-84
2023/10/23 03:52:16;;;;;;;9.70;2.33;;;;;;;;;;5054101;28;20227;-84
2023/10/23 03:54:43;;;;;;;12.23;2.43;;;;;;;;;;5054766;28;20230;-84
2023/10/23 03:57:11;;;;;;;7.90;2.47;;;;;;;;;;5054625;28;20290;-85
2023/10/23 03:59:38;;;;;;;7.53;2.20;;;;;;;;;;5053809;28;20257;-85
2023/10/23 04:02:07;;;;;;;8.60;2.47;;;;;;;;;;5054095;28;20224;-85
2023/10/23 04:04:34;;;;;;;10.33;2.40;;;;;;;;;;5054502;28;20215;-86
2023/10/23 04:07:01;;;;;;;7.43;2.30;;;;;;;;;;5054196;28;20277;-86
2023/10/23 04:09:30;;;;;;;10.87;2.67;;;;;;;;;;5054391;28;20219;-85
2023/10/23 04:11:57;;;;;;;8.40;2.10;;;;;;;;;;5054292;28;20576;-86
2023/10/23 04:14:24;;;;;;;8.50;2.10;;;;;;;;;;5054327;28;20676;-86
2023/10/23 04:16:52;;;;;;;8.87;2.43;;;;;;;;;;5053928;28;20227;-85
2023/10/23 04:19:20;;;;;;;11.43;2.20;;;;;;;;;;5054124;28;20287;-87
2023/10/23 04:21:48;;;;;;;8.30;1.87;;;;;;;;;;5054329;28;20224;-86
2023/10/23 04:24:15;;;;;;;7.77;2.27;;;;;;;;;;5053628;28;20231;-86
2023/10/23 04:26:42;;;;;;;11.23;3.10;;;;;;;;;;5053796;28;20294;-87
2023/10/23 04:29:10;;;;;;;9.60;2.43;;;;;;;;;;5054353;28;20192;-84
2023/10/23 04:31:37;;;;;;;9.03;2.20;;;;;;;;;;5053455;28;20239;-83
2023/10/23 04:34:04;;;;;;;7.80;2.00;;;;;;;;;;5053955;28;20219;-83
2023/10/23 04:36:33;;;;;;;4.07;1.70;;;;;;;;;;5054267;28;20231;-86
2023/10/23 04:39:00;;;;;;;8.17;1.90;;;;;;;;;;5054778;28;20200;-86
2023/10/23 04:41:27;;;;;;;5.67;2.23;;;;;;;;;;5053289;28;20292;-84
2023/10/23 04:43:55;;;;;;;6.93;2.00;;;;;;;;;;5053676;28;20635;-85
2023/10/23 04:46:22;;;;;;;6.07;2.13;;;;;;;;;;5053631;28;20274;-85
2023/10/23 04:48:49;;;;;;;7.43;1.93;;;;;;;;;;5053726;28;20306;-85
2023/10/23 04:51:17;;;;;;;9.17;2.10;;;;;;;;;;5054027;28;20234;-85
2023/10/23 04:53:45;;;;;;;4.57;1.90;;;;;;;;;;5053847;28;20250;-84
2023/10/23 04:56:13;;;;;;;8.40;2.10;;;;;;;;;;5053214;28;20215;-81
2023/10/23 04:58:40;;;;;;;8.10;2.00;;;;;;;;;;5053206;28;20672;-81
2023/10/23 05:01:16;;;;;;;10.47;2.47;;;;;;;;;;5053229;28;20237;-81
2023/10/23 05:03:43;;;;;;;7.73;1.93;;;;;;;;;;5052982;28;20282;-81
2023/10/23 05:06:10;;;;;;;4.43;1.73;;;;;;;;;;5050339;28;20290;-81
2023/10/23 05:08:37;;;;;;;5.63;1.93;;;;;;;;;;5052964;28;20266;-82
2023/10/23 05:11:10;;;;;;;8.83;1.90;;;;;;;;;;5052889;28;20249;-80
2023/10/23 05:13:37;;;;;;;6.73;2.13;;;;;;;;;;5052739;28;20287;-80
2023/10/23 05:16:05;;;;;;;8.67;1.90;;;;;;;;;;5053223;28;20242;-81
2023/10/23 05:18:32;;;;;;;6.43;1.90;;;;;;;;;;5053046;28;20297;-81
2023/10/23 05:21:00;;;;;;;7.40;1.93;;;;;;;;;;5052956;28;20257;-80
2023/10/23 05:23:29;;;;;;;6.00;1.70;;;;;;;;;;5052620;28;20258;-81
2023/10/23 05:25:56;;;;;;;11.37;1.70;;;;;;;;;;5052533;28;20625;-80
2023/10/23 05:28:26;;;;;;;6.03;1.73;;;;;;;;;;5052596;28;20228;-81
2023/10/23 05:30:53;;;;;;;5.73;1.40;;;;;;;;;;5052946;28;20209;-82
2023/10/23 05:33:20;;;;;;;4.87;1.57;;;;;;;;;;5052866;28;20249;-81
2023/10/23 05:35:47;;;;;;;3.63;1.30;;;;;;;;;;5052072;28;20196;-82
2023/10/23 05:38:15;;;;;;;4.57;2.00;;;;;;;;;;5052361;28;20652;-79
2023/10/23 05:40:42;;;;;;;9.27;1.77;;;;;;;;;;5050915;28;20231;-86
2023/10/23 05:43:11;;;;;;;7.63;1.50;;;;;;;;;;5055068;28;20254;-88
2023/10/23 05:45:39;;;;;;;5.43;1.57;;;;;;;;;;5054058;28;20196;-87
2023/10/23 05:48:07;;;;;;;6.67;1.70;;;;;;;;;;5054551;28;20242;-86
2023/10/23 05:50:34;;;;;;;5.43;1.40;;;;;;;;;;5054421;28;20644;-87
2023/10/23 05:53:01;;;;;;;6.97;1.70;;;;;;;;;;5053884;28;20200;-87
2023/10/23 05:55:28;;;;;;;7.13;1.87;;;;;;;;;;5053458;28;20203;-87
2023/10/23 05:57:57;;;;;;;4.93;1.60;;;;;;;;;;5053778;28;20702;-87
2023/10/23 06:00:24;;;;;;;7.97;1.60;;;;;;;;;;5053699;28;20214;-87
2023/10/23 06:02:53;;;;;;;7.87;2.20;;;;;;;;;;5054062;28;20216;-87
2023/10/23 06:05:20;;;;;;;5.27;1.67;;;;;;;;;;5053809;28;20200;-87
2023/10/23 06:07:48;;;;;;;4.57;1.50;;;;;;;;;;5053729;28;20585;-86
2023/10/23 06:10:15;;;;;;;6.90;1.57;;;;;;;;;;5053371;28;20223;-87
2023/10/23 06:12:42;;;;;;;5.80;1.60;;;;;;;;;;5054025;28;20246;-88
2023/10/23 06:15:10;;;;;;;6.50;1.80;;;;;;;;;;5054259;28;20660;-87
2023/10/23 06:17:37;;;;;;;4.10;1.57;;;;;;;;;;5053894;28;20223;-87
2023/10/23 06:20:06;;;;;;;3.80;1.30;;;;;;;;;;5054170;28;20623;-87
2023/10/23 06:22:34;;;;;;;6.43;1.27;;;;;;;;;;5053627;28;20204;-87
2023/10/23 06:25:00;;;;;;;5.47;1.53;;;;;;;;;;5053689;28;20204;-87
2023/10/23 06:27:28;;;;;;;3.43;1.50;;;;;;;;;;5053011;28;20648;-87
2023/10/23 06:29:55;;;;;;;6.33;1.57;;;;;;;;;;5053413;28;20294;-87
2023/10/23 06:32:22;;;;;;;10.00;1.93;;;;;;;;;;5052765;28;20192;-86
2023/10/23 06:34:53;;;;;;;6.87;1.60;;;;;;;;;;5053157;28;20199;-86
2023/10/23 06:37:21;;;;;;;5.73;1.40;;;;;;;;;;5052678;28;20235;-87
2023/10/23 06:39:49;;;;;;;7.57;1.65;;;;;;;;;;4702886;28;10000621;-86
2023/10/23 06:42:16;;;;;;;5.83;1.67;;;;;;;;;;5049600;28;20495;-86
2023/10/23 06:44:44;;;;;;;6.53;1.70;;;;;;;;;;5049628;28;20207;-86
2023/10/23 06:47:11;;;;;;;3.17;1.50;;;;;;;;;;5050005;28;20263;-86
2023/10/23 06:49:38;;;;;;;6.50;1.83;;;;;;;;;;5049392;28;20246;-86
2023/10/23 06:52:06;;;;;;;5.97;1.30;;;;;;;;;;5049710;28;20200;-85
2023/10/23 06:54:34;;;;;;;7.10;1.40;;;;;;;;;;5052810;28;20195;-86
2023/10/23 06:57:06;;;;;;;5.43;1.40;;;;;;;;;;5053023;28;20220;-86
2023/10/23 06:59:33;;;;;;;3.40;1.50;;;;;;;;;;5053286;28;20218;-87
2023/10/23 07:02:00;;;;;;;5.70;1.80;;;;;;;;;;5052937;28;20265;-85
2023/10/23 07:04:27;;;;;;;5.80;1.70;;;;;;;;;;5052452;28;20291;-86
2023/10/23 07:06:55;;;;;;;6.70;1.67;;;;;;;;;;5052440;28;20242;-86
2023/10/23 07:09:22;;;;;;;5.47;1.43;;;;;;;;;;5057087;28;20231;-86
2023/10/23 07:11:51;;;;;;;6.80;1.57;;;;;;;;;;5056412;28;20649;-87
2023/10/23 07:14:19;;;;;;;3.33;1.40;;;;;;;;;;5056925;28;20230;-86
2023/10/23 07:16:46;;;;;;;7.20;1.53;;;;;;;;;;5056593;28;20294;-86
2023/10/23 07:19:14;;;;;;;4.00;1.57;;;;;;;;;;5056677;28;20269;-85
2023/10/23 07:21:41;;;;;;;6.13;1.73;;;;;;;;;;5056598;28;20755;-87
2023/10/23 07:24:09;;;;;;;6.03;1.77;;;;;;;;;;5056483;28;20226;-86
2023/10/23 07:26:36;;;;;;;6.27;1.67;;;;;;;;;;5056257;28;20227;-86
2023/10/23 07:29:05;;;;;;;7.00;1.60;;;;;;;;;;5056072;28;20723;-85
2023/10/23 07:31:32;;;;;;;7.93;1.40;;;;;;;;;;5056237;28;20196;-86
2023/10/23 07:34:00;;;;;;;5.40;1.40;;;;;;;;;;5052386;28;20630;-87
2023/10/23 07:36:27;;;;;;;4.60;1.53;;;;;;;;;;5053769;28;20219;-86
2023/10/23 07:38:54;;;;;;;4.97;1.37;;;;;;;;;;5053862;28;20578;-86
2023/10/23 07:41:22;;;;;;;7.10;1.40;;;;;;;;;;5053680;28;20688;-87
2023/10/23 07:43:49;;;;;;;4.33;1.40;;;;;;;;;;5053955;28;20325;-88
2023/10/23 07:46:18;;;;;;;3.90;1.50;;;;;;;;;;5053424;28;20727;-87
2023/10/23 07:48:46;;;;;;;4.30;1.40;;;;;;;;;;5054971;28;20311;-87
2023/10/23 07:51:13;;;;;;;4.23;1.60;;;;;;;;;;5055752;28;20652;-87
2023/10/23 07:53:40;;;;;;;4.00;1.50;;;;;;;;;;5056381;28;20203;-87
2023/10/23 07:56:07;;;;;;;5.97;1.43;;;;;;;;;;5055726;28;20239;-87
2023/10/23 07:58:35;;;;;;;3.30;1.57;;;;;;;;;;5055448;28;20717;-87
2023/10/23 08:01:04;;;;;;;3.93;1.43;;;;;;;;;;5055541;28;20203;-88
2023/10/23 08:03:34;;;;;;;5.80;1.67;;;;;;;;;;5055507;28;20204;-88
2023/10/23 08:06:03;;;;;;;3.63;1.60;;;;;;;;;;5055539;28;20223;-88
2023/10/23 08:08:30;;;;;;;4.40;1.40;;;;;;;;;;5055416;28;20281;-88
2023/10/23 08:10:58;;;;;;;5.00;1.30;;;;;;;;;;5056653;28;20305;-88
2023/10/23 08:13:25;;;;;;;4.97;1.50;;;;;;;;;;5055968;28;20279;-87
2023/10/23 08:15:53;;;;;;;3.90;1.20;;;;;;;;;;5055326;28;20874;-86
2023/10/23 08:18:20;;;;;;;5.50;1.63;;;;;;;;;;5054970;28;20676;-87
2023/10/23 08:20:49;;;;;;;6.10;1.63;;;;;;;;;;5055476;28;20253;-87
2023/10/23 08:23:16;;;;;;;8.83;1.70;;;;;;;;;;5055677;28;20210;-88
2023/10/23 08:25:44;;;;;;;5.87;1.70;;;;;;;;;;5055795;28;20654;-87
2023/10/23 08:28:11;;;;;;;3.47;1.73;;;;;;;;;;5054994;28;20765;-87
2023/10/23 08:30:38;;;;;;;4.30;1.47;;;;;;;;;;5054710;28;20261;-87
2023/10/23 08:33:06;;;;;;;4.57;1.60;;;;;;;;;;5055218;28;20227;-87
2023/10/23 08:35:33;;;;;;;7.47;1.67;;;;;;;;;;5055369;28;20195;-87
2023/10/23 08:38:02;;;;;;;5.40;1.87;;;;;;;;;;5055431;28;20230;-87
2023/10/23 08:40:30;;;;;;;3.83;1.80;;;;;;;;;;5055296;28;20206;-87
2023/10/23 08:42:57;;;;;;;7.40;2.17;;;;;;;;;;5054788;28;20253;-86
2023/10/23 08:45:25;;;;;;;5.07;1.87;;;;;;;;;;5051867;28;20269;-86
2023/10/23 08:47:52;;;;;;;6.70;2.50;;;;;;;;;;5050702;28;20657;-86
2023/10/23 08:50:20;;;;;;;9.27;2.27;;;;;;;;;;5056154;28;20242;-85
2023/10/23 08:52:51;;;;;;;6.23;2.33;;;;;;;;;;5054175;28;20692;-86
2023/10/23 08:55:21;;;;;;;7.87;2.80;;;;;;;;;;5051547;28;20211;-85
2023/10/23 08:57:51;;;;;;;5.73;2.30;;;;;;;;;;5050708;28;20227;-84
2023/10/23 09:00:19;;;;;;;6.77;2.33;;;;;;;;;;5052141;28;20188;-86
2023/10/23 09:02:46;;;;;;;9.13;2.97;;;;;;;;;;5051204;28;20204;-86
2023/10/23 09:05:13;;;;;;;5.47;2.70;;;;;;;;;;5049661;28;20191;-85
2023/10/23 09:07:41;;;;;;;6.30;2.57;;;;;;;;;;5045243;28;20209;-88
2023/10/23 09:10:08;;;;;;;6.77;2.73;;;;;;;;;;5038296;28;20285;-86
2023/10/23 09:12:39;;;;;;;5.00;2.30;;;;;;;;;;5048245;28;20208;-86
2023/10/23 09:15:16;;;;;;;5.70;2.30;;;;;;;;;;5051318;28;20203;-86
2023/10/23 09:17:44;;;;;;;5.73;2.20;;;;;;;;;;5049159;28;20207;-88
2023/10/23 09:20:26;;;;;;;6.20;2.30;;;;;;;;;;5050117;28;20235;-87
2023/10/23 09:22:54;;;;;;;8.80;2.70;;;;;;;;;;5042075;28;20211;-86
2023/10/23 09:25:21;;;;;;;4.83;2.33;;;;;;;;;;5052046;28;20230;-85
2023/10/23 09:28:00;;;;;;;7.53;2.60;;;;;;;;;;5051523;28;20206;-85
2023/10/23 09:30:27;;;;;;;6.43;2.17;;;;;;;;;;5049453;28;20239;-86
2023/10/23 09:32:55;;;;;;;5.63;2.53;;;;;;;;;;5049250;28;20239;-86
2023/10/23 09:35:29;;;;;;;4.87;2.10;;;;;;;;;;5051150;28;20584;-86
2023/10/23 09:37:57;;;;;;;5.83;2.10;;;;;;;;;;5050546;28;20594;-86
2023/10/23 09:40:24;;;;;;;6.70;2.30;;;;;;;;;;5049940;28;20310;-85
2023/10/23 09:42:55;;;;;;;8.47;3.13;;;;;;;;;;5048097;28;20265;-86
2023/10/23 09:45:23;;;;;;;4.33;2.00;;;;;;;;;;5049539;28;20207;-88
2023/10/23 09:47:51;;;;;;;5.53;1.97;;;;;;;;;;5049041;28;20231;-86
2023/10/23 09:50:18;;;;;;;4.67;1.70;;;;;;;;;;5040161;28;20266;-85
2023/10/23 09:52:45;;;;;;;4.10;1.73;;;;;;;;;;5049144;28;20289;-88
2023/10/23 09:55:13;;;;;;;3.13;1.50;;;;;;;;;;5047253;28;20204;-87
2023/10/23 09:57:41;;;;;;;3.50;1.80;;;;;;;;;;5051407;28;20691;-85
2023/10/23 10:00:14;;;;;;;6.00;2.00;;;;;;;;;;5052943;28;20265;-84
2023/10/23 10:02:42;;;;;;;4.80;2.03;;;;;;;;;;5051723;28;20204;-87
2023/10/23 10:05:13;;;;;;;6.27;2.17;;;;;;;;;;5051911;28;20269;-87
2023/10/23 10:07:47;;;;;;;4.47;1.67;;;;;;;;;;5052792;28;20204;-85
2023/10/23 10:10:15;;;;;;;6.37;2.10;;;;;;;;;;5050253;28;20698;-86
2023/10/23 10:12:43;;;;;;;7.80;3.70;;;;;;;;;;5043777;28;20234;-86
2023/10/23 10:15:14;;;;;;;5.40;2.27;;;;;;;;;;5040903;28;20277;-86
2023/10/23 10:17:41;;;;;;;2.93;1.67;;;;;;;;;;5046846;28;20204;-87
2023/10/23 10:20:09;;;;;;;4.57;1.90;;;;;;;;;;5049014;28;20208;-87
2023/10/23 10:22:37;;;;;;;6.13;2.30;;;;;;;;;;5047405;28;20253;-87
2023/10/23 10:25:05;;;;;;;4.17;1.90;;;;;;;;;;5049054;28;20224;-88
2023/10/23 10:27:33;;;;;;;5.53;1.80;;;;;;;;;;5044486;28;20675;-85
2023/10/23 10:30:04;;;;;;;6.17;2.10;;;;;;;;;;5049316;28;20593;-87
2023/10/23 10:32:33;;;;;;;3.43;1.93;;;;;;;;;;5049651;28;20269;-86
2023/10/23 10:35:02;;;;;;;5.57;2.10;;;;;;;;;;5047815;28;20199;-84
2023/10/23 10:37:30;;;;;;;5.70;2.30;;;;;;;;;;5047241;28;20207;-86
2023/10/23 10:40:03;;;;;;;3.63;2.13;;;;;;;;;;5046746;28;20578;-88
2023/10/23 10:42:31;;;;;;;5.10;2.10;;;;;;;;;;5044398;28;20211;-77
2023/10/23 10:44:59;;;;;;;4.80;2.33;;;;;;;;;;5047077;28;20223;-79
2023/10/23 10:47:37;;;;;;;5.53;2.43;;;;;;;;;;5045293;28;20224;-80
2023/10/23 10:50:05;;;;;;;5.22;2.50;;;;;;;;;;5046501;28;20468;-84
2023/10/23 10:52:37;;;;;;;4.33;2.20;;;;;;;;;;5048939;28;20208;-86
2023/10/23 10:55:05;;;;;;;6.67;2.00;;;;;;;;;;5049605;28;20192;-87
2023/10/23 10:57:34;;;;;;;8.80;5.20;;;;;;;;;;5050092;28;20226;-84
2023/10/23 11:00:03;;;;;;;6.43;2.90;;;;;;;;;;5049875;28;20200;-84
2023/10/23 11:02:30;;;;;;;4.93;2.90;;;;;;;;;;5051437;28;20223;-85
2023/10/23 11:04:59;;;;;;;5.30;2.97;;;;;;;;;;5050556;28;20224;-85
2023/10/23 11:07:27;;;;;;;5.73;2.73;;;;;;;;;;5051122;28;20275;-85
2023/10/23 11:09:55;;;;;;;5.17;2.47;;;;;;;;;;5051217;28;20289;-85
2023/10/23 11:12:24;;;;;;;4.63;2.77;;;;;;;;;;5051201;28;20224;-85
2023/10/23 11:14:51;;;;;;;5.53;2.97;;;;;;;;;;5051384;28;20196;-85
2023/10/23 11:17:19;;;;;;;7.17;2.90;;;;;;;;;;5050774;28;20648;-85
2023/10/23 11:19:46;;;;;;;5.93;2.67;;;;;;;;;;5046485;28;20305;-84
2023/10/23 11:22:17;;;;;;;6.37;2.90;;;;;;;;;;5053260;28;20238;-91
2023/10/23 11:24:45;;;;;;;3.87;2.87;;;;;;;;;;5053916;28;20218;-94
2023/10/23 11:27:12;;;;;;;7.73;2.90;;;;;;;;;;5052926;28;20269;-94
2023/10/23 11:29:41;;;;;;;6.90;3.47;;;;;;;;;;5071846;28;20219;-92
2023/10/23 11:34:50;;;;;;;7.33;3.60;;;;;;;;;;5062104;28;20206;-96
2023/10/23 11:37:19;;;;;;;7.40;4.37;;;;;;;;;;5063987;28;20310;-95
2023/10/23 11:39:49;;;;;;;7.90;4.00;;;;;;;;;;5061421;28;20222;-94
2023/10/23 11:42:16;;;;;;;7.97;4.70;;;;;;;;;;5056168;28;20572;-94
2023/10/23 11:44:46;;;;;;;6.80;4.10;;;;;;;;;;5055176;28;20693;-93
2023/10/23 11:47:13;;;;;;;9.27;4.40;;;;;;;;;;5053936;28;20569;-90
2023/10/23 11:49:40;;;;;;;5.93;4.40;;;;;;;;;;5054519;28;20639;-91
2023/10/23 11:52:07;;;;;;;7.23;4.47;;;;;;;;;;5053789;28;20200;-90
2023/10/23 11:54:36;;;;;;;6.37;4.03;;;;;;;;;;5055603;28;20200;-93
2023/10/23 11:57:04;;;;;;;7.00;4.10;;;;;;;;;;5055030;28;20230;-94
2023/10/23 11:59:31;;;;;;;7.27;4.90;;;;;;;;;;5056732;28;20211;-93
2023/10/23 12:02:00;;;;;;;7.97;4.90;;;;;;;;;;5057686;28;20721;-93
2023/10/23 12:04:35;;;;;;;8.07;4.60;;;;;;;;;;5059077;28;20216;-95
2023/10/23 12:07:04;;;;;;;8.97;5.13;;;;;;;;;;5049255;28;20203;-94
2023/10/23 12:09:31;;;;;;;9.37;5.57;;;;;;;;;;5057895;28;20261;-93
2023/10/23 12:12:00;;;;;;;10.17;5.17;;;;;;;;;;5056676;28;20283;-94
2023/10/23 12:14:27;;;;;;;6.70;4.57;;;;;;;;;;5056775;28;20585;-94
2023/10/23 12:16:55;;;;;;;6.17;4.20;;;;;;;;;;5048022;28;20196;-93
2023/10/23 12:19:22;;;;;;;9.17;4.07;;;;;;;;;;5062995;28;20204;-95
2023/10/23 12:21:49;;;;;;;6.67;4.13;;;;;;;;;;5059872;28;20206;-95
2023/10/23 12:24:17;;;;;;;6.63;4.30;;;;;;;;;;5059978;28;20199;-93
2023/10/23 12:26:44;;;;;;;7.23;4.33;;;;;;;;;;5058901;28;20273;-94
2023/10/23 12:29:15;;;;;;;8.47;4.80;;;;;;;;;;5055152;28;20311;-94
2023/10/23 12:31:43;;;;;;;8.50;4.90;;;;;;;;;;5054506;28;20204;-94
2023/10/23 12:34:10;;;;;;;8.47;4.23;;;;;;;;;;5057645;28;20577;-94
2023/10/23 12:36:37;;;;;;;5.60;3.90;;;;;;;;;;5055577;28;20249;-94
2023/10/23 12:39:06;;;;;;;8.43;4.20;;;;;;;;;;5050119;28;20726;-94
2023/10/23 12:41:33;;;;;;;10.37;4.70;;;;;;;;;;5057253;28;20668;-93
2023/10/23 12:44:01;;;;;;;7.90;4.80;;;;;;;;;;5050991;28;20611;-94
2023/10/23 12:46:29;;;;;;;8.53;4.63;;;;;;;;;;5054644;28;20235;-94
2023/10/23 12:48:57;;;;;;;8.70;4.30;;;;;;;;;;5057646;28;20682;-92
2023/10/23 12:51:26;;;;;;;6.97;4.63;;;;;;;;;;5054832;28;20232;-93
2023/10/23 12:53:53;;;;;;;5.43;4.10;;;;;;;;;;5055329;28;20199;-95
2023/10/23 12:56:21;;;;;;;9.20;5.00;;;;;;;;;;5054684;28;20741;-94
2023/10/23 12:58:48;;;;;;;9.40;4.93;;;;;;;;;;5056027;28;20200;-96
2023/10/23 13:01:16;;;;;;;8.50;4.40;;;;;;;;;;5053385;28;20211;-96
2023/10/23 13:03:44;;;;;;;6.50;4.00;;;;;;;;;;5055256;28;20196;-92
2023/10/23 13:06:12;;;;;;;9.10;4.23;;;;;;;;;;5053381;28;20200;-94
2023/10/23 13:08:40;;;;;;;6.07;3.70;;;;;;;;;;5052204;28;20714;-96
2023/10/23 13:11:08;;;;;;;7.03;3.93;;;;;;;;;;5049654;28;20320;-95
2023/10/23 13:13:35;;;;;;;5.53;3.60;;;;;;;;;;5058236;28;20207;-93
2023/10/23 13:16:02;;;;;;;5.90;3.90;;;;;;;;;;5055631;28;20200;-94
2023/10/23 13:18:31;;;;;;;8.43;4.03;;;;;;;;;;5057220;28;20209;-94
2023/10/23 13:21:00;;;;;;;7.47;4.20;;;;;;;;;;5059658;28;20196;-94
2023/10/23 13:23:27;;;;;;;7.93;3.97;;;;;;;;;;5051360;28;20524;-95
2023/10/23 13:25:54;;;;;;;6.73;3.50;;;;;;;;;;5052770;28;20322;-95
2023/10/23 13:28:22;;;;;;;8.80;3.60;;;;;;;;;;5056581;28;20629;-96
2023/10/23 13:30:49;;;;;;;6.43;3.33;;;;;;;;;;5048280;28;20228;-93
2023/10/23 13:33:18;;;;;;;6.07;3.90;;;;;;;;;;5039293;28;20226;-94
2023/10/23 13:35:45;;;;;;;6.43;3.10;;;;;;;;;;5053883;28;20736;-94
2023/10/23 13:38:15;;;;;;;5.53;2.95;;;;;;;;;;5056283;28;20246;-96
2023/10/23 13:40:42;;;;;;;7.72;2.80;;;;;;;;;;5062560;28;20266;-93
2023/10/23 13:43:09;;;;;;;5.57;3.03;;;;;;;;;;5061918;28;20196;-95
2023/10/23 13:45:37;;;;;;;4.40;2.90;;;;;;;;;;5060094;28;20196;-93
2023/10/23 13:48:04;;;;;;;6.00;2.88;;;;;;;;;;5066220;28;20614;-93
2023/10/23 13:50:34;;;;;;;4.50;2.70;;;;;;;;;;5060415;28;20207;-93
2023/10/23 13:53:02;;;;;;;7.00;2.65;;;;;;;;;;5054065;28;20210;-94
2023/10/23 13:55:30;;;;;;;5.63;3.10;;;;;;;;;;5055896;28;20203;-92
2023/10/23 13:57:58;;;;;;;8.07;3.60;;;;;;;;;;5056105;28;20207;-93
2023/10/23 14:00:26;;;;;;;3.90;3.00;;;;;;;;;;5056560;28;20196;-92
2023/10/23 14:02:53;;;;;;;4.90;3.30;;;;;;;;;;5057050;28;20196;-92
2023/10/23 14:05:20;;;;;;;5.45;3.33;;;;;;;;;;5054099;28;20606;-95
2023/10/23 14:07:48;;;;;;;4.80;3.30;;;;;;;;;;5052395;28;20208;-92
2023/10/23 14:10:16;;;;;;;7.13;3.70;;;;;;;;;;5054115;28;20266;-93
2023/10/23 14:12:46;;;;;;;7.78;3.60;;;;;;;;;;5054288;28;20196;-94
2023/10/23 14:15:13;;;;;;;7.85;4.40;;;;;;;;;;5053379;28;20226;-91
2023/10/23 14:17:41;;;;;;;8.82;5.20;;;;;;;;;;5050716;28;20196;-93
2023/10/23 14:20:08;;;;;;;10.30;6.22;;;;;;;;;;5054382;28;20215;-93
2023/10/23 14:22:38;;;;;;;9.77;5.43;;;;;;;;;;5053789;28;21081;-92
2023/10/23 14:25:05;;;;;;;4.28;3.22;;;;;;;;;;5053971;28;20211;-94
2023/10/23 14:27:33;;;;;;;6.18;3.40;;;;;;;;;;5053824;28;20734;-94
2023/10/23 14:30:02;;;;;;;8.60;3.60;;;;;;;;;;5052519;28;20208;-93
2023/10/23 14:32:29;;;;;;;5.03;3.50;;;;;;;;;;5052407;28;20222;-95
2023/10/23 14:34:57;;;;;;;6.18;3.50;;;;;;;;;;5052558;28;20196;-94
2023/10/23 14:37:24;;;;;;;7.05;3.75;;;;;;;;;;5052575;28;20204;-94
2023/10/23 14:39:51;;;;;;;6.45;3.70;;;;;;;;;;5052666;28;20219;-94
2023/10/23 14:42:19;;;;;;;5.13;3.50;;;;;;;;;;5054013;28;20226;-95
2023/10/23 14:44:46;;;;;;;5.82;3.35;;;;;;;;;;5052861;28;20234;-94
2023/10/23 14:47:15;;;;;;;6.80;4.47;;;;;;;;;;4702340;28;10000388;-94